Time;durP1;ratioP1;P1;durP2;ratioP2;P2;SDS_P1;SDS_P2;PMS_P1;PMS_P2;Temp;Humidity;BMP_temperature;BMP_pressure;BME280_temperature;BME280_humidity;BME280_pressure;Samples;Min_cycle;Max_cycle;Signal;HPM_P1;HPM_P2
2022/07/10 00:01:43;;;;;;;7.70;6.90;;;;;;;15.09;70.98;97131.05;110118;1247;72282;-75
2022/07/10 00:04:13;;;;;;;6.90;5.90;;;;;;;15.05;70.73;97132.28;110275;1247;67865;-77
2022/07/10 00:06:46;;;;;;;7.50;5.80;;;;;;;15.02;70.06;97132.42;110227;1246;68655;-77
2022/07/10 00:09:16;;;;;;;7.80;6.70;;;;;;;14.98;69.81;97134.70;110270;1247;60589;-75
2022/07/10 00:11:46;;;;;;;7.80;6.60;;;;;;;14.94;68.75;97131.23;110002;1250;60555;-76
2022/07/10 00:14:16;;;;;;;7.10;6.00;;;;;;;14.92;68.38;97129.15;110157;1247;72209;-75
2022/07/10 00:16:46;;;;;;;8.20;7.40;;;;;;;14.90;70.36;97130.09;110220;1247;67887;-76
2022/07/10 00:19:18;;;;;;;8.00;6.50;;;;;;;14.90;72.30;97133.09;110299;1245;68681;-75
2022/07/10 00:21:48;;;;;;;8.10;6.60;;;;;;;14.87;72.00;97130.70;110242;1246;60505;-75
2022/07/10 00:24:18;;;;;;;6.90;6.10;;;;;;;14.86;71.56;97130.46;110178;1246;60491;-75
2022/07/10 00:26:47;;;;;;;9.50;7.40;;;;;;;14.86;72.44;97130.43;110021;1247;71456;-75
2022/07/10 00:29:17;;;;;;;9.00;7.40;;;;;;;14.88;74.25;97126.80;110021;1247;68443;-75
2022/07/10 00:31:47;;;;;;;8.10;7.30;;;;;;;14.89;73.15;97125.45;110239;1245;69233;-74
2022/07/10 00:34:16;;;;;;;9.40;7.70;;;;;;;14.91;72.95;97122.47;110253;1246;60459;-75
2022/07/10 00:36:45;;;;;;;8.00;6.40;;;;;;;14.91;71.66;97119.94;110392;1246;60438;-75
2022/07/10 00:39:15;;;;;;;8.20;6.20;;;;;;;14.92;72.24;97117.21;110300;1247;71370;-75
2022/07/10 00:41:45;;;;;;;;;;;;;;;14.93;72.56;97115.22;110292;1247;68256;-75
2022/07/10 00:44:15;;;;;;;7.80;6.40;;;;;;;14.91;73.93;97116.06;110266;1247;68629;-74
2022/07/10 00:46:46;;;;;;;8.70;6.20;;;;;;;14.89;70.91;97115.41;110249;1246;60495;-75
2022/07/10 00:49:17;;;;;;;8.20;7.20;;;;;;;14.87;70.44;97111.55;110246;1247;60468;-75
2022/07/10 00:51:47;;;;;;;7.20;6.30;;;;;;;14.83;70.11;97109.02;110348;1247;72221;-76
2022/07/10 00:54:17;;;;;;;10.40;9.10;;;;;;;14.75;70.88;97107.11;110107;1247;67804;-76
2022/07/10 00:56:48;;;;;;;11.10;8.10;;;;;;;14.63;72.50;97109.79;110114;1250;69562;-77
2022/07/10 00:59:18;;;;;;;;;;;;;;;14.53;72.40;97111.84;110204;1247;60466;-77
2022/07/10 01:01:50;;;;;;;9.00;7.50;;;;;;;14.41;74.82;97113.44;110233;1245;60476;-76
2022/07/10 01:04:21;;;;;;;10.40;7.40;;;;;;;14.32;72.74;97110.39;110174;1247;70559;-75
2022/07/10 01:06:50;;;;;;;;;;;;;;;14.24;75.92;97108.28;110215;1247;68027;-75
2022/07/10 01:09:20;;;;;;;10.30;8.40;;;;;;;14.18;77.79;97106.96;110288;1246;68436;-75
2022/07/10 01:11:50;;;;;;;;;;;;;;;14.12;77.50;97105.39;110184;1247;60507;-75
2022/07/10 01:14:21;;;;;;;9.40;6.80;;;;;;;14.07;76.81;97103.48;110256;1247;60443;-75
2022/07/10 01:16:54;;;;;;;8.60;7.30;;;;;;;14.04;74.76;97101.97;110064;1247;72569;-75
2022/07/10 01:19:25;;;;;;;9.80;7.90;;;;;;;14.01;73.48;97095.40;110261;1247;67869;-75
2022/07/10 01:21:54;;;;;;;8.90;7.20;;;;;;;13.97;75.03;97096.77;110191;1246;69501;-77
2022/07/10 01:24:25;;;;;;;7.70;6.60;;;;;;;13.93;76.04;97097.73;110380;1247;60580;-75
2022/07/10 01:26:55;;;;;;;8.30;7.20;;;;;;;13.87;74.37;97096.63;110293;1247;60566;-76
2022/07/10 01:29:28;;;;;;;8.60;6.80;;;;;;;13.81;75.01;97094.92;110161;1247;72204;-77
2022/07/10 01:32:00;;;;;;;8.40;6.60;;;;;;;13.75;74.58;97089.10;110182;1247;68365;-74
2022/07/10 01:34:32;;;;;;;8.80;7.30;;;;;;;13.70;77.81;97085.60;110295;1246;69718;-75
2022/07/10 01:37:03;;;;;;;8.40;6.90;;;;;;;13.62;79.25;97084.54;110171;1247;60491;-76
2022/07/10 01:39:32;;;;;;;9.50;7.90;;;;;;;13.55;80.00;97081.14;110004;1247;60485;-76
2022/07/10 01:42:02;;;;;;;8.10;7.20;;;;;;;13.46;79.16;97076.17;109968;1247;72143;-75
2022/07/10 01:44:32;;;;;;;8.70;6.30;;;;;;;13.36;79.13;97071.04;110083;1250;68556;-75
2022/07/10 01:47:04;;;;;;;7.70;5.80;;;;;;;13.27;77.75;97073.36;110042;1248;68650;-75
2022/07/10 01:49:37;;;;;;;8.30;6.70;;;;;;;13.20;78.42;97069.03;110277;1245;60488;-74
2022/07/10 01:52:07;;;;;;;8.10;6.60;;;;;;;13.15;79.67;97068.83;110256;1247;60542;-76
2022/07/10 01:54:37;;;;;;;;;;;;;;;13.11;79.97;97070.38;110055;1247;71617;-75
2022/07/10 01:57:07;;;;;;;7.50;6.10;;;;;;;13.06;78.82;97068.23;110225;1246;68581;-76
2022/07/10 01:59:37;;;;;;;9.70;7.80;;;;;;;13.02;78.83;97063.98;110064;1247;68618;-76
2022/07/10 02:02:08;;;;;;;9.60;7.90;;;;;;;12.98;77.96;97063.09;110012;1247;60574;-75
2022/07/10 02:04:41;;;;;;;8.90;7.10;;;;;;;12.93;77.66;97056.59;110223;1247;60489;-77
2022/07/10 02:07:14;;;;;;;8.60;7.20;;;;;;;12.89;80.89;97061.17;110238;1245;71539;-75
2022/07/10 02:09:45;;;;;;;8.90;6.50;;;;;;;12.83;81.23;97067.71;110148;1248;67957;-76
2022/07/10 02:12:16;;;;;;;7.80;5.90;;;;;;;12.77;81.25;97060.20;110458;1247;69423;-75
2022/07/10 02:14:46;;;;;;;7.40;6.60;;;;;;;12.72;80.21;97064.14;110118;1247;60547;-76
2022/07/10 02:17:17;;;;;;;7.60;6.30;;;;;;;12.68;80.58;97066.10;110173;1247;60895;-76
2022/07/10 02:19:48;;;;;;;5.90;4.40;;;;;;;12.64;81.17;97066.45;110099;1248;72365;-76
2022/07/10 02:22:18;;;;;;;7.60;6.60;;;;;;;12.60;80.35;97059.12;110185;1247;67877;-75
2022/07/10 02:24:47;;;;;;;9.40;6.40;;;;;;;12.58;82.11;97056.80;110150;1247;68479;-74
2022/07/10 02:27:18;;;;;;;7.40;6.30;;;;;;;12.54;80.34;97059.13;110235;1247;60542;-76
2022/07/10 02:29:47;;;;;;;8.90;6.90;;;;;;;12.50;82.33;97065.55;110231;1247;60492;-76
2022/07/10 02:32:19;;;;;;;7.60;5.70;;;;;;;12.47;82.81;97066.70;109915;1247;71756;-76
2022/07/10 02:34:49;;;;;;;9.30;6.50;;;;;;;12.42;79.68;97065.04;110323;1247;67764;-76
2022/07/10 02:37:20;;;;;;;7.40;5.40;;;;;;;12.39;78.12;97058.48;110201;1247;68563;-78
2022/07/10 02:39:54;;;;;;;9.10;6.30;;;;;;;12.35;78.51;97061.06;110238;1247;60544;-75
2022/07/10 02:42:24;;;;;;;8.60;7.10;;;;;;;12.32;77.42;97061.19;109980;1247;60501;-75
2022/07/10 02:44:55;;;;;;;8.60;6.40;;;;;;;12.29;78.42;97064.77;110286;1246;71741;-76
2022/07/10 02:47:26;;;;;;;10.60;7.70;;;;;;;12.27;82.75;97067.38;110207;1247;68516;-75
2022/07/10 02:49:56;;;;;;;8.70;7.70;;;;;;;12.23;82.83;97069.71;110233;1246;68615;-77
2022/07/10 02:52:26;;;;;;;;;;;;;;;12.16;83.43;97075.80;110219;1247;60888;-77
2022/07/10 02:54:58;;;;;;;7.70;6.60;;;;;;;12.06;83.42;97072.77;110307;1247;60491;-76
2022/07/10 02:57:31;;;;;;;9.50;6.70;;;;;;;12.00;83.79;97074.66;110169;1247;72300;-77
2022/07/10 03:00:03;;;;;;;8.70;6.70;;;;;;;11.96;84.14;97076.25;110229;1247;68245;-76
2022/07/10 03:02:33;;;;;;;9.70;7.60;;;;;;;11.93;83.81;97081.06;110230;1247;69503;-76
2022/07/10 03:05:04;;;;;;;7.10;5.40;;;;;;;11.90;83.62;97083.04;110189;1247;60493;-76
2022/07/10 03:07:36;;;;;;;8.00;6.10;;;;;;;11.87;81.41;97081.05;110207;1247;60554;-75
2022/07/10 03:10:07;;;;;;;9.10;7.60;;;;;;;11.85;78.99;97078.23;110046;1247;71443;-76
2022/07/10 03:12:38;;;;;;;10.60;7.10;;;;;;;11.82;80.82;97083.35;110080;1247;68714;-76
2022/07/10 03:15:09;;;;;;;8.00;6.70;;;;;;;11.80;79.80;97082.46;110268;1246;67709;-76
2022/07/10 03:17:39;;;;;;;11.00;7.90;;;;;;;11.78;79.97;97076.16;110082;1247;60490;-75
2022/07/10 03:20:09;;;;;;;;;;;;;;;11.78;81.68;97072.36;110214;1247;60591;-75
2022/07/10 03:22:39;;;;;;;8.50;5.80;;;;;;;11.76;82.50;97070.25;110280;1247;72303;-75
2022/07/10 03:25:13;;;;;;;9.10;6.60;;;;;;;11.77;79.79;97072.95;110220;1247;67605;-77
2022/07/10 03:27:45;;;;;;;12.00;9.30;;;;;;;11.79;81.24;97079.40;109917;1250;69833;-77
2022/07/10 03:30:16;;;;;;;12.70;9.50;;;;;;;11.83;85.79;97087.66;109971;1247;60587;-76
2022/07/10 03:32:46;;;;;;;10.30;9.20;;;;;;;11.87;83.73;97087.15;109971;1250;60477;-77
2022/07/10 03:35:16;;;;;;;6.50;5.70;;;;;;;11.89;80.22;97084.66;110264;1247;72681;-76
2022/07/10 03:37:50;;;;;;;8.60;6.60;;;;;;;11.91;80.67;97085.79;110265;1247;68789;-76
2022/07/10 03:40:31;;;;;;;9.30;7.60;;;;;;;11.93;79.62;97084.00;110418;1244;67977;-75
2022/07/10 03:43:02;;;;;;;8.20;6.20;;;;;;;11.97;79.74;97081.40;110089;1247;60532;-75
2022/07/10 03:45:33;;;;;;;8.00;6.00;;;;;;;12.01;80.58;97082.99;110302;1247;61012;-75
2022/07/10 03:48:05;;;;;;;9.40;7.50;;;;;;;12.07;81.34;97085.10;110436;1247;71396;-77
2022/07/10 03:50:35;;;;;;;10.40;7.70;;;;;;;12.17;85.15;97087.56;110253;1245;67900;-74
2022/07/10 03:53:05;;;;;;;7.70;6.50;;;;;;;12.24;81.89;97088.92;110103;1247;68625;-75
2022/07/10 03:55:35;;;;;;;9.30;7.00;;;;;;;12.31;80.23;97092.16;110264;1247;60555;-75
2022/07/10 03:58:05;;;;;;;;;;;;;;;12.38;79.59;97081.21;110254;1245;60865;-75
2022/07/10 04:00:38;;;;;;;8.60;7.30;;;;;;;12.47;81.63;97083.61;110169;1247;72309;-75
2022/07/10 04:03:08;;;;;;;8.90;6.10;;;;;;;12.57;82.56;97085.36;110254;1247;67827;-74
2022/07/10 04:05:37;;;;;;;;;;;;;;;12.68;81.62;97084.95;110231;1247;68614;-74
2022/07/10 04:08:08;;;;;;;8.10;5.10;;;;;;;12.77;82.12;97085.98;110269;1247;60558;-75
2022/07/10 04:10:40;;;;;;;9.00;6.50;;;;;;;12.86;81.73;97082.34;110248;1247;60457;-76
2022/07/10 04:13:10;;;;;;;9.30;8.00;;;;;;;12.99;82.99;97081.05;109921;1247;72239;-76
2022/07/10 04:15:39;;;;;;;9.20;6.70;;;;;;;13.11;82.93;97079.95;110235;1247;68901;-77
2022/07/10 04:18:09;;;;;;;8.90;6.70;;;;;;;13.24;81.92;97081.35;109932;1247;69087;-75
2022/07/10 04:20:38;;;;;;;;;;;;;;;13.36;81.32;97081.83;110187;1247;60547;-75
2022/07/10 04:23:07;;;;;;;7.50;5.50;;;;;;;13.47;79.70;97082.42;110209;1247;60467;-75
2022/07/10 04:25:37;;;;;;;7.30;6.00;;;;;;;13.57;79.22;97080.27;110188;1247;71570;-73
2022/07/10 04:28:06;;;;;;;8.70;5.60;;;;;;;13.69;78.71;97077.98;110158;1247;68037;-75
2022/07/10 04:30:35;;;;;;;10.00;7.80;;;;;;;13.82;77.81;97074.73;110224;1247;69080;-74
2022/07/10 04:33:05;;;;;;;7.50;6.20;;;;;;;13.94;76.84;97072.90;110260;1247;60561;-74
2022/07/10 04:35:35;;;;;;;7.90;6.50;;;;;;;14.07;76.12;97073.65;110209;1247;60478;-74
2022/07/10 04:38:04;;;;;;;8.90;5.70;;;;;;;14.20;74.94;97078.71;110177;1247;70878;-75
2022/07/10 04:40:34;;;;;;;7.40;5.90;;;;;;;14.35;74.71;97080.36;110224;1247;67811;-74
2022/07/10 04:43:04;;;;;;;6.50;5.80;;;;;;;14.51;74.02;97081.27;110021;1247;69350;-74
2022/07/10 04:45:33;;;;;;;8.00;6.80;;;;;;;14.67;73.36;97083.81;110143;1247;60949;-75
2022/07/10 04:48:05;;;;;;;8.20;6.20;;;;;;;14.80;72.93;97082.96;109994;1247;60490;-75
2022/07/10 04:50:34;;;;;;;9.60;7.00;;;;;;;14.93;72.01;97080.81;110163;1247;72307;-74
2022/07/10 04:53:03;;;;;;;6.50;4.90;;;;;;;15.05;70.67;97080.95;110145;1248;67677;-75
2022/07/10 04:55:33;;;;;;;6.60;4.80;;;;;;;15.17;68.05;97079.05;110172;1247;69285;-74
2022/07/10 04:58:02;;;;;;;;;;;;;;;15.34;68.50;97081.43;109910;1249;60512;-75
2022/07/10 05:00:32;;;;;;;6.50;5.40;;;;;;;15.54;68.84;97085.24;110103;1247;60574;-78
2022/07/10 05:03:01;;;;;;;5.70;5.10;;;;;;;15.70;65.46;97086.52;109689;1250;72326;-75
2022/07/10 05:05:31;;;;;;;5.70;5.20;;;;;;;15.88;65.94;97084.95;110017;1250;67731;-74
2022/07/10 05:08:00;;;;;;;5.40;4.50;;;;;;;16.05;65.46;97081.62;110034;1246;69353;-75
2022/07/10 05:10:30;;;;;;;4.80;4.20;;;;;;;16.24;65.14;97082.20;110215;1247;60541;-75
2022/07/10 05:13:02;;;;;;;6.10;5.00;;;;;;;16.40;63.79;97078.63;110114;1247;60503;-75
2022/07/10 05:15:32;;;;;;;5.20;4.60;;;;;;;16.50;62.54;97069.64;109991;1247;71387;-76
2022/07/10 05:18:02;;;;;;;4.10;3.70;;;;;;;16.47;61.11;97065.30;109913;1248;68543;-77
2022/07/10 05:20:33;;;;;;;5.20;4.00;;;;;;;16.69;60.65;97063.03;110003;1248;68951;-74
2022/07/10 05:23:02;;;;;;;4.90;4.20;;;;;;;17.05;60.05;97059.80;110177;1247;60528;-75
2022/07/10 05:25:32;;;;;;;5.40;4.20;;;;;;;17.34;58.25;97058.33;110011;1247;60581;-76
2022/07/10 05:28:02;;;;;;;4.00;3.30;;;;;;;17.53;59.24;97059.69;109940;1250;71654;-77
2022/07/10 05:30:32;;;;;;;4.90;4.40;;;;;;;17.76;57.63;97058.60;110101;1247;67656;-77
2022/07/10 05:33:02;;;;;;;5.30;3.90;;;;;;;17.85;56.61;97059.67;109951;1249;69389;-76
2022/07/10 05:35:34;;;;;;;5.10;4.60;;;;;;;17.76;56.05;97061.60;109895;1248;60881;-75
2022/07/10 05:38:03;;;;;;;4.40;3.90;;;;;;;17.51;56.95;97063.94;109903;1250;60476;-76
2022/07/10 05:40:33;;;;;;;4.20;3.80;;;;;;;17.31;57.97;97059.67;109998;1247;71389;-75
2022/07/10 05:43:03;;;;;;;4.80;3.80;;;;;;;17.46;58.42;97058.67;110123;1248;67852;-75
2022/07/10 05:45:32;;;;;;;6.10;4.10;;;;;;;17.43;57.52;97063.16;109907;1250;69445;-74
2022/07/10 05:48:01;;;;;;;5.40;4.10;;;;;;;17.30;58.07;97061.74;110072;1248;60615;-76
2022/07/10 05:50:30;;;;;;;4.90;4.00;;;;;;;17.00;58.13;97053.29;110147;1247;60507;-76
2022/07/10 05:53:00;;;;;;;4.60;4.20;;;;;;;16.84;58.55;97052.02;110175;1247;71579;-76
2022/07/10 05:55:29;;;;;;;4.90;4.40;;;;;;;16.94;58.57;97047.40;109999;1250;67893;-75
2022/07/10 05:57:59;;;;;;;5.60;4.50;;;;;;;17.00;58.62;97050.79;110194;1247;69425;-76
2022/07/10 06:00:28;;;;;;;;;;;;;;;16.92;58.62;97044.98;110249;1247;60475;-76
2022/07/10 06:02:57;;;;;;;7.00;4.70;;;;;;;17.10;58.87;97047.84;110209;1247;60518;-74
2022/07/10 06:05:26;;;;;;;5.00;3.90;;;;;;;17.20;58.30;97044.47;110225;1247;72358;-75
2022/07/10 06:07:55;;;;;;;4.40;3.60;;;;;;;17.49;58.58;97039.48;109984;1248;68565;-76
2022/07/10 06:10:24;;;;;;;6.60;4.00;;;;;;;17.74;57.23;97034.80;110165;1247;68697;-75
2022/07/10 06:12:53;;;;;;;4.40;4.00;;;;;;;17.88;56.81;97032.42;110192;1247;60519;-75
2022/07/10 06:15:22;;;;;;;4.60;3.90;;;;;;;18.17;56.11;97032.16;110253;1247;60443;-76
2022/07/10 06:17:51;;;;;;;4.30;3.50;;;;;;;18.49;56.45;97033.84;110238;1247;72706;-76
2022/07/10 06:20:20;;;;;;;3.90;3.50;;;;;;;18.92;56.21;97031.19;110301;1247;68610;-75
2022/07/10 06:22:50;;;;;;;3.90;3.10;;;;;;;19.38;54.16;97036.77;110052;1250;69321;-76
2022/07/10 06:25:19;;;;;;;4.10;3.70;;;;;;;19.86;53.07;97036.77;110244;1247;60544;-75
2022/07/10 06:27:48;;;;;;;4.20;3.00;;;;;;;20.27;51.62;97031.20;110270;1247;60557;-75
2022/07/10 06:30:21;;;;;;;4.30;2.90;;;;;;;20.77;51.10;97023.30;110278;1247;72764;-75
2022/07/10 06:32:50;;;;;;;4.60;3.50;;;;;;;21.30;50.15;97026.29;110097;1250;68623;-75
2022/07/10 06:35:19;;;;;;;4.50;3.30;;;;;;;21.68;48.33;97027.02;110164;1247;69468;-74
2022/07/10 06:37:48;;;;;;;4.00;3.30;;;;;;;21.73;47.20;97025.65;110269;1247;60495;-75
2022/07/10 06:40:20;;;;;;;4.10;3.20;;;;;;;21.72;47.59;97024.38;110266;1247;60510;-80
2022/07/10 06:42:49;;;;;;;4.40;4.00;;;;;;;21.58;47.17;97026.80;110247;1247;72466;-73
2022/07/10 06:45:20;;;;;;;4.20;3.00;;;;;;;20.85;47.70;97028.12;110296;1245;68621;-77
2022/07/10 06:47:58;;;;;;;4.70;3.30;;;;;;;20.68;48.84;97029.11;110227;1248;68707;-78
2022/07/10 06:50:32;;;;;;;4.50;3.00;;;;;;;21.05;49.31;97028.69;110144;1247;60498;-77
2022/07/10 06:53:02;;;;;;;4.30;3.60;;;;;;;20.93;48.35;97027.67;110372;1246;60493;-77
2022/07/10 06:55:32;;;;;;;4.40;3.60;;;;;;;20.50;48.73;97027.70;110315;1247;70801;-77
2022/07/10 06:58:02;;;;;;;3.80;3.20;;;;;;;20.64;48.68;97019.66;110257;1248;68661;-78
2022/07/10 07:00:31;;;;;;;;;;;;;;;20.82;48.96;97021.98;110065;1250;69505;-76
2022/07/10 07:03:00;;;;;;;3.70;3.20;;;;;;;21.17;48.76;97021.23;110099;1247;60544;-76
2022/07/10 07:05:29;;;;;;;3.70;3.30;;;;;;;21.71;48.70;97017.77;110269;1247;60468;-78
2022/07/10 07:08:02;;;;;;;4.30;2.90;;;;;;;22.29;46.59;97021.73;110173;1247;71584;-77
2022/07/10 07:10:31;;;;;;;3.40;3.10;;;;;;;22.82;44.94;97021.06;110205;1248;68702;-76
2022/07/10 07:13:00;;;;;;;4.10;2.90;;;;;;;23.08;43.51;97020.78;110218;1247;68775;-76
2022/07/10 07:15:29;;;;;;;4.70;3.70;;;;;;;23.71;43.64;97020.93;110350;1247;60494;-79
2022/07/10 07:18:08;;;;;;;4.00;3.10;;;;;;;24.00;42.67;97018.61;110325;1247;60453;-73
2022/07/10 07:23:25;;;;;;;3.90;3.10;;;;;;;24.80;41.33;97009.67;110233;1247;67617;-75
2022/07/10 07:25:55;;;;;;;3.40;3.10;;;;;;;24.92;41.35;97008.23;110274;1247;68773;-75
2022/07/10 07:28:24;;;;;;;3.60;2.70;;;;;;;25.06;41.63;97005.08;109599;1248;709329;-76
2022/07/10 07:30:53;;;;;;;3.80;2.70;;;;;;;24.71;40.54;97012.00;110238;1247;60480;-76
2022/07/10 07:33:22;;;;;;;3.50;3.00;;;;;;;24.76;41.35;97009.30;110184;1247;71799;-75
2022/07/10 07:35:51;;;;;;;3.50;3.20;;;;;;;24.41;40.92;97010.85;110240;1247;68561;-77
2022/07/10 07:38:21;;;;;;;4.00;3.70;;;;;;;24.24;41.94;97012.90;110127;1249;69793;-74
2022/07/10 07:40:50;;;;;;;3.50;3.20;;;;;;;23.99;41.99;97010.36;110061;1250;60563;-75
2022/07/10 07:43:19;;;;;;;2.90;2.60;;;;;;;23.55;43.05;97010.36;110148;1248;60505;-75
2022/07/10 07:45:48;;;;;;;3.80;3.40;;;;;;;23.69;43.65;97011.21;110252;1247;72405;-74
2022/07/10 07:48:17;;;;;;;4.00;2.90;;;;;;;23.74;43.72;97011.48;110171;1247;67820;-74
2022/07/10 07:50:46;;;;;;;3.30;2.90;;;;;;;23.76;42.91;97013.24;110181;1248;69427;-75
2022/07/10 07:53:15;;;;;;;4.40;3.30;;;;;;;23.88;42.52;97014.96;110183;1247;60617;-75
2022/07/10 07:55:44;;;;;;;3.50;3.20;;;;;;;24.04;42.79;97014.02;110208;1248;60406;-74
2022/07/10 07:58:13;;;;;;;3.00;2.50;;;;;;;24.07;42.90;97020.27;110164;1248;71510;-75
2022/07/10 08:00:42;;;;;;;3.20;2.90;;;;;;;23.72;42.05;97012.20;110210;1247;67618;-76
2022/07/10 08:03:11;;;;;;;4.20;3.30;;;;;;;23.84;42.97;97015.75;110213;1247;69508;-76
2022/07/10 08:05:41;;;;;;;3.60;3.20;;;;;;;23.99;42.47;97020.17;110214;1247;60494;-76
2022/07/10 08:08:11;;;;;;;3.90;3.20;;;;;;;23.94;42.35;97021.33;110183;1247;60500;-76
2022/07/10 08:10:41;;;;;;;3.70;3.10;;;;;;;23.81;41.95;97023.77;110218;1248;71828;-76
2022/07/10 08:13:13;;;;;;;3.90;3.40;;;;;;;23.52;42.19;97018.44;110207;1247;68313;-76
2022/07/10 08:15:42;;;;;;;3.60;3.30;;;;;;;23.69;42.14;97014.58;110198;1247;68506;-75
2022/07/10 08:18:11;;;;;;;3.10;2.80;;;;;;;23.74;43.00;97015.45;110217;1247;60516;-76
2022/07/10 08:20:44;;;;;;;3.80;3.20;;;;;;;24.20;42.24;97014.30;110138;1248;60568;-76
2022/07/10 08:23:14;;;;;;;3.60;3.00;;;;;;;24.03;41.89;97010.37;110180;1247;72342;-74
2022/07/10 08:25:49;;;;;;;4.10;2.90;;;;;;;23.83;42.77;97006.81;110255;1248;68408;-74
2022/07/10 08:28:28;;;;;;;3.90;3.30;;;;;;;24.70;41.63;96996.95;109893;1251;68750;-76
2022/07/10 08:30:57;;;;;;;3.50;2.90;;;;;;;25.07;40.55;96998.48;110239;1248;60922;-76
2022/07/10 08:33:26;;;;;;;3.30;2.80;;;;;;;25.35;39.87;96997.95;110104;1248;60478;-75
2022/07/10 08:35:58;;;;;;;3.10;2.50;;;;;;;26.13;38.71;97004.90;110091;1247;72326;-75
2022/07/10 08:38:47;;;;;;;3.00;2.70;;;;;;;26.71;36.59;96997.30;110215;1248;68687;-75
2022/07/10 08:41:20;;;;;;;3.30;2.80;;;;;;;26.58;37.22;97000.81;110179;1247;68646;-75
2022/07/10 08:43:52;;;;;;;3.60;3.10;;;;;;;26.66;36.66;96998.20;110265;1247;60490;-74
2022/07/10 08:46:21;;;;;;;3.40;2.90;;;;;;;25.26;37.96;96996.04;110194;1248;60535;-75
2022/07/10 08:48:54;;;;;;;3.40;2.60;;;;;;;25.33;38.00;96999.36;110190;1247;72395;-75
2022/07/10 08:51:41;;;;;;;3.80;2.70;;;;;;;25.12;37.90;96993.58;110251;1248;68111;-75
2022/07/10 08:54:15;;;;;;;2.80;2.60;;;;;;;25.14;38.60;96996.79;110142;1248;69491;-74
2022/07/10 08:56:51;;;;;;;2.80;2.50;;;;;;;25.17;39.22;96999.63;110175;1247;60500;-76
2022/07/10 08:59:23;;;;;;;4.20;3.20;;;;;;;25.15;39.25;97000.59;110190;1247;60440;-75
2022/07/10 09:01:59;;;;;;;3.00;2.60;;;;;;;24.98;39.33;97002.08;110203;1246;72434;-75
2022/07/10 09:04:29;;;;;;;2.80;2.20;;;;;;;24.69;39.67;96999.66;110001;1248;67840;-74
2022/07/10 09:06:58;;;;;;;4.00;2.30;;;;;;;24.29;39.96;97009.70;110117;1250;69459;-76
2022/07/10 09:09:27;;;;;;;4.60;3.90;;;;;;;23.73;40.43;97011.73;110183;1247;60559;-75
2022/07/10 09:11:59;;;;;;;6.40;5.40;;;;;;;23.29;40.17;97014.98;110174;1247;60532;-75
2022/07/10 09:14:28;;;;;;;7.00;6.10;;;;;;;22.97;40.50;97018.27;110358;1246;72507;-76
2022/07/10 09:17:03;;;;;;;4.00;3.60;;;;;;;22.69;41.07;97020.45;110247;1247;67842;-76
2022/07/10 09:19:32;;;;;;;4.00;3.60;;;;;;;22.49;41.61;97020.72;110289;1247;67646;-75
2022/07/10 09:22:05;;;;;;;4.90;3.70;;;;;;;22.23;42.29;97027.05;110346;1247;60869;-74
2022/07/10 09:24:40;;;;;;;4.60;3.30;;;;;;;22.02;42.29;97025.14;110355;1247;60487;-76
2022/07/10 09:27:11;;;;;;;4.70;2.60;;;;;;;21.73;42.12;97021.79;110268;1247;72915;-76
2022/07/10 09:29:47;;;;;;;3.00;2.50;;;;;;;21.48;42.73;97022.10;110138;1247;68086;-75
2022/07/10 09:32:19;;;;;;;6.30;5.80;;;;;;;21.23;43.47;97019.23;110272;1247;68455;-73
2022/07/10 09:37:41;;;;;;;3.10;2.40;;;;;;;20.86;45.16;97031.48;110274;1247;60496;-76
2022/07/10 09:40:10;;;;;;;4.00;2.60;;;;;;;20.82;45.42;97028.69;110308;1247;72990;-74
2022/07/10 09:42:43;;;;;;;4.30;2.90;;;;;;;20.71;44.59;97027.05;110220;1247;67811;-75
2022/07/10 09:45:12;;;;;;;3.90;3.50;;;;;;;20.62;44.33;97022.65;110166;1247;68638;-75
2022/07/10 09:47:57;;;;;;;4.50;3.70;;;;;;;20.55;43.96;97025.26;110287;1247;60472;-75
2022/07/10 09:50:33;;;;;;;4.00;3.40;;;;;;;20.47;43.62;97023.50;110169;1247;60612;-76
2022/07/10 09:53:04;;;;;;;2.50;2.30;;;;;;;20.45;43.25;97023.34;110275;1247;71741;-75
2022/07/10 09:55:35;;;;;;;3.40;2.80;;;;;;;20.40;42.65;97025.39;110229;1247;68601;-74
2022/07/10 09:58:06;;;;;;;3.00;2.50;;;;;;;20.34;42.32;97026.08;110014;1248;68707;-76
2022/07/10 10:00:38;;;;;;;2.80;2.60;;;;;;;20.28;42.98;97022.86;110204;1250;60552;-76
2022/07/10 10:03:11;;;;;;;3.70;2.40;;;;;;;20.23;43.75;97022.41;110302;1247;60579;-76
2022/07/10 10:06:01;;;;;;;3.10;2.80;;;;;;;20.16;44.61;97022.45;110310;1247;71569;-76
2022/07/10 10:08:58;;;;;;;2.90;2.60;;;;;;;20.20;45.26;97020.32;110287;1247;67862;-75
2022/07/10 10:11:31;;;;;;;2.30;2.10;;;;;;;20.18;45.34;97023.36;110247;1247;68862;-77
2022/07/10 10:14:03;;;;;;;35.90;27.50;;;;;;;20.28;45.43;97021.42;110250;1247;60619;-76
2022/07/10 10:16:35;;;;;;;30.00;23.10;;;;;;;20.44;45.61;97018.05;110037;1247;60464;-78
2022/07/10 10:22:01;;;;;;;4.10;3.20;;;;;;;20.66;45.96;97018.26;110280;1247;68621;-77
2022/07/10 10:24:33;;;;;;;4.20;3.80;;;;;;;20.90;46.14;97015.42;110043;1248;68684;-74
2022/07/10 10:27:05;;;;;;;4.60;4.20;;;;;;;21.13;45.32;97013.48;110282;1248;60543;-74
2022/07/10 10:29:37;;;;;;;6.60;5.20;;;;;;;21.32;45.18;97010.42;110225;1248;60436;-76
2022/07/10 10:32:09;;;;;;;4.40;4.00;;;;;;;21.52;44.06;97006.36;110335;1247;71659;-76
2022/07/10 10:34:41;;;;;;;3.50;2.80;;;;;;;21.73;43.69;97008.14;110403;1247;67811;-76
2022/07/10 10:37:37;;;;;;;3.30;2.60;;;;;;;21.95;43.06;97009.80;110138;1248;68627;-76
2022/07/10 10:40:09;;;;;;;11.10;8.50;;;;;;;22.11;41.97;97006.27;110201;1248;60494;-77
2022/07/10 10:42:43;;;;;;;6.10;5.50;;;;;;;22.27;42.47;97004.15;110209;1247;60495;-76
2022/07/10 10:45:34;;;;;;;2.90;2.40;;;;;;;22.37;41.74;97005.45;110217;1250;72191;-74
2022/07/10 10:48:09;;;;;;;9.70;6.70;;;;;;;22.32;40.55;97003.20;110194;1248;68930;-77
2022/07/10 10:51:10;;;;;;;20.80;18.90;;;;;;;22.28;41.74;97003.46;110307;1247;68651;-77
2022/07/10 10:53:40;;;;;;;16.70;15.30;;;;;;;22.32;42.04;96999.47;110052;1248;60595;-76
2022/07/10 10:56:10;;;;;;;3.90;3.40;;;;;;;22.37;41.78;96996.19;110115;1250;60512;-76
2022/07/10 10:58:43;;;;;;;9.30;8.50;;;;;;;22.44;41.56;96988.98;110171;1250;72349;-76
2022/07/10 11:01:20;;;;;;;12.40;10.00;;;;;;;22.62;41.54;96988.41;110211;1248;67790;-76
2022/07/10 11:04:12;;;;;;;10.60;7.80;;;;;;;22.75;39.97;96983.59;110207;1248;68448;-75
2022/07/10 11:06:52;;;;;;;4.20;3.50;;;;;;;22.88;38.57;96982.35;110229;1248;60552;-75
2022/07/10 11:09:30;;;;;;;40.40;34.60;;;;;;;22.92;37.44;96980.40;109834;1250;60470;-76
2022/07/10 11:12:01;;;;;;;43.20;36.80;;;;;;;22.96;35.96;96979.73;110279;1248;72335;-75
2022/07/10 11:14:32;;;;;;;3.20;2.10;;;;;;;22.86;36.18;96974.42;109977;1250;67651;-75
2022/07/10 11:17:05;;;;;;;2.00;1.70;;;;;;;22.37;37.86;96975.61;109925;1249;68613;-77
2022/07/10 11:19:37;;;;;;;3.60;1.80;;;;;;;22.29;38.28;96976.92;110233;1248;60541;-74
2022/07/10 11:22:47;;;;;;;3.30;2.20;;;;;;;22.38;38.43;96973.83;109927;1250;60479;-75
2022/07/10 11:25:24;;;;;;;2.50;2.00;;;;;;;22.16;38.86;96974.34;109938;1248;71655;-74
2022/07/10 11:28:09;;;;;;;3.10;2.00;;;;;;;21.96;39.45;96973.32;110263;1247;67560;-74
2022/07/10 11:30:56;;;;;;;4.80;2.90;;;;;;;22.60;39.65;96966.77;109990;1250;68651;-73
2022/07/10 11:33:44;;;;;;;3.50;2.10;;;;;;;23.12;38.06;96964.44;110014;1248;60557;-76
2022/07/10 11:36:34;;;;;;;2.10;1.90;;;;;;;23.44;37.61;96962.33;109826;1251;60504;-77
2022/07/10 11:39:08;;;;;;;2.40;1.70;;;;;;;23.69;36.81;96967.38;110080;1250;72542;-75
2022/07/10 11:41:46;;;;;;;3.30;2.10;;;;;;;23.66;36.82;96968.21;110093;1250;67610;-75
2022/07/10 11:44:18;;;;;;;2.40;1.90;;;;;;;23.47;36.95;96958.80;109954;1250;69400;-74
2022/07/10 11:46:49;;;;;;;2.00;1.60;;;;;;;23.34;37.33;96961.40;109996;1249;60590;-75
2022/07/10 11:49:19;;;;;;;2.30;2.10;;;;;;;23.22;37.40;96966.67;110040;1250;60619;-76
2022/07/10 11:51:50;;;;;;;2.20;1.70;;;;;;;23.18;38.10;96967.43;109845;1249;71982;-76
2022/07/10 11:54:20;;;;;;;2.10;1.90;;;;;;;22.86;37.16;96965.36;109855;1251;68888;-76
2022/07/10 11:56:54;;;;;;;1.80;1.60;;;;;;;23.02;36.82;96970.36;109896;1251;69232;-76